This is the latest recevied weather packets stored in our database for station/object EA4IAJ-12. If no packets are shown the sender has not sent any weather packets the latest 10 day(s).
| Time | Temp. | Humidity | Pressure | Rain* | Wind** | Luminosity | Snow |
|---|---|---|---|---|---|---|---|
| 1787474177 | 33.33° C | 100% | 1060.7 hPa | - | - | - | - |
| 1787473276 | 31.11° C | 100% | 1051.1 hPa | - | - | - | - |
| 1787472375 | 29.44° C | 100% | 1043.6 hPa | - | - | - | - |
| 1787471475 | 28.33° C | 100% | 1040.2 hPa | - | - | - | - |
| 1787470574 | 25° C | 100% | 1024.3 hPa | - | - | - | - |
| 1787469674 | 23.89° C | 100% | 1020 hPa | - | - | - | - |
| 1787468773 | 23.33° C | 100% | 1017 hPa | - | - | - | - |
| 1787467872 | 22.78° C | 100% | 1015.4 hPa | - | - | - | - |
| 1787466972 | 22.22° C | 100% | 1012.7 hPa | - | - | - | - |
| 1787466071 | 21.67° C | 100% | 1009.6 hPa | - | - | - | - |
| 1787465171 | 21.11° C | 100% | 1006.8 hPa | - | - | - | - |
| 1787464270 | 20.56° C | 100% | 1004.7 hPa | - | - | - | - |
| 1787463370 | 20.56° C | 100% | 1005.1 hPa | - | - | - | - |
| 1787462469 | 20° C | 100% | 1002.6 hPa | - | - | - | - |
| 1787460668 | 19.44° C | 100% | 998 hPa | - | - | - | - |
| 1787459768 | 19.44° C | 100% | 998.1 hPa | - | - | - | - |
| 1787458868 | 19.44° C | 99% | 998.9 hPa | - | - | - | - |
| 1787457967 | 20° C | 94% | 999.2 hPa | - | - | - | - |
| 1787457079 | 19.44° C | 89% | 997.4 hPa | - | - | - | - |
| 1787456178 | 19.44° C | 84% | 995.8 hPa | - | - | - | - |
| 1787455278 | 20° C | 79% | 997.7 hPa | - | - | - | - |
| 1787454378 | 20° C | 74% | 997.7 hPa | - | - | - | - |
| 1787453477 | 20° C | 68% | 997 hPa | - | - | - | - |
| 1787452576 | 20° C | 62% | 997 hPa | - | - | - | - |
| 1787451676 | 20° C | 57% | 997.4 hPa | - | - | - | - |
* Rain since midnight (hover to see other rain measurements)
** Current wind speed in m/s (hover to see current wind gust speed)